Terminal Aerodrome Forecast
Issued by NWS

Home | Current Version | Previous Version | Text Only | Print | Product List | Glossary On
Versions: 1 2 3 4 5 6 7 8 9 10 11 12 13 14 15 16 17 18 19 20 21 22 23 24 25 26 27 28
000
FTUS43 KMKX 281452 AAA
TAFUES
TAF AMD
KUES 281452Z 2815/2912 35003KT P6SM OVC022
     FM281900 03006KT P6SM BKN025
     FM282100 04006KT P6SM FEW040
     FM290600 04005KT 5SM BR SCT035
     FM291000 05005KT 2SM BR SCT020=

USA.gov is the U.S. government's official web portal to all federal, state and local government web resources and services.